Terminal Aerodrome Forecast
Issued by NWS Melbourne, FL

Home | Current Version | Previous Version | Text Only | Print | Product List | Glossary On
Versions: 1 2 3 4 5 6 7 8 9 10 11 12 13
887
FTUS42 KMLB 210539
TAFMLB
TAF
KMLB 210539Z 2106/2206 22006KT P6SM SCT250
     FM211000 25003KT P6SM SCT004
      TEMPO 2110/2113 5SM MIFG BR BKN004
     FM211400 20008KT P6SM FEW010 SCT250
     FM211800 19012KT P6SM SCT040 BKN250
     FM220000 21006KT P6SM BKN250=

USA.gov is the U.S. government's official web portal to all federal, state and local government web resources and services.